Terminal Aerodrome Forecast
Issued by NWS

Home | Current Version | Previous Version | Text Only | Print | Product List | Glossary On
Versions: 1 2 3 4 5 6 7 8 9 10 11 12 13 14
000
FTAK31 PAJN 301728
TAFAWG
TAF
PAWG 301728Z 3018/3118 30005KT P6SM SCT015 BKN025 OVC040
     FM302100 31006KT P6SM SCT025 BKN045
     FM310200 27003KT P6SM FEW025 BKN050
     FM310800 VRB02KT P6SM FEW015 BKN025 OVC035
     FM311100 VRB02KT P6SM BKN015 OVC025
      AMD LTD TO CLD VIS AND WIND 3106/3115=

USA.gov is the U.S. government's official web portal to all federal, state and local government web resources and services.